Hiawatha, West Virginia
Current Conditions -  °F | °C
As of 6:52 PM on Sunday 21 Dec 2014 (Local Time) from KBLF Reporting Station
Clear Clear  
Wind Chill: 36°   Ceiling: Unl
Heat Index: 39°   Visibility: 10mi
Dew Point: 30°   Wind: 5mph
Humidity: 70%   Direction: NA
Pressure: 30.12"   Gusts: NA
Location:  37.44°N, 81.24°W
Report Text: KBLF 212352Z AUTO VRB04KT 10SM CLR 04/M01 A3012 RMK AO2 SLP211 T00391011 10067 20039 55007
Loading
Personal Weather Stations






























Interactive Weather Map New forecast layout! Learn more

10-Day Weather Forecast

Advertisements
Track Severe Weather on mobile